Port Ludlow, Washington
Current Conditions -  °F | °C
As of 1:53 AM on Sunday 26 Oct 2014 (Local Time) from KPAE Reporting Station
Broken Clouds Broken Clouds  
Wind Chill: 44°   Ceiling: 9000
Heat Index: 49°   Visibility: 10mi
Dew Point: 45°   Wind: 13mph
Humidity: 86%   Direction: 200°SSW
Pressure: 29.79"   Gusts: NA
Location:  47.93°N, 122.69°W
Report Text: KPAE 260853Z AUTO 20011KT 10SM FEW065 BKN090 09/07 A2979 RMK AO2 RAB0757E12 SLP087 P0000 60004 T00940072 51042
Loading
Personal Weather Stations






























Interactive Weather Map
Tropical Storm Tracking
New forecast layout! Learn more

10-Day Weather Forecast

Advertisements
Track Severe Weather on mobile